Time;durP1;ratioP1;P1;durP2;ratioP2;P2;SDS_P1;SDS_P2;PMS_P1;PMS_P2;Temp;Humidity;BMP_temperature;BMP_pressure;BME280_temperature;BME280_humidity;BME280_pressure;Samples;Min_cycle;Max_cycle;Signal;HPM_P1;HPM_P2
2022/05/30 00:02:03;;;;;;;;;;;19.80;55.60;;;;;;5065588;28;19916;-73
2022/05/30 00:04:29;;;;;;;;;;;19.80;55.50;;;;;;5085562;28;19912;-73
2022/05/30 00:06:54;;;;;;;;;;;19.80;55.50;;;;;;5066585;28;19916;-73
2022/05/30 00:09:20;;;;;;;;;;;19.80;55.60;;;;;;5067232;28;20412;-74
2022/05/30 00:11:45;;;;;;;;;;;19.90;55.50;;;;;;5067375;28;19964;-74
2022/05/30 00:14:11;;;;;;;;;;;19.90;55.20;;;;;;5085629;28;19912;-75
2022/05/30 00:16:36;;;;;;;;;;;20.00;55.20;;;;;;5067347;28;19919;-75
2022/05/30 00:19:02;;;;;;;;;;;20.00;55.00;;;;;;5067714;28;20400;-74
2022/05/30 00:21:27;;;;;;;;;;;20.00;55.00;;;;;;5066812;28;19982;-73
2022/05/30 00:23:55;;;;;;;;;;;20.00;55.00;;;;;;5067149;28;19920;-73
2022/05/30 00:26:21;;;;;;;;;;;20.00;54.90;;;;;;5067600;28;19957;-73
2022/05/30 00:28:47;;;;;;;;;;;20.00;54.80;;;;;;5067062;28;20071;-73
2022/05/30 00:31:13;;;;;;;;;;;20.00;54.90;;;;;;5084168;28;20532;-75
2022/05/30 00:33:39;;;;;;;;;;;20.00;54.80;;;;;;5049838;28;19916;-74
2022/05/30 00:36:04;;;;;;;;;;;20.00;54.80;;;;;;5067484;28;20042;-74
2022/05/30 00:38:30;;;;;;;;;;;20.00;54.70;;;;;;5084314;28;19990;-73
2022/05/30 00:40:57;;;;;;;;;;;20.00;54.70;;;;;;5049945;28;20284;-73
2022/05/30 00:43:29;;;;;;;;;;;20.00;54.70;;;;;;5066455;28;19912;-72
2022/05/30 00:45:55;;;;;;;;;;;20.00;54.70;;;;;;5066495;28;19916;-74
2022/05/30 00:48:22;;;;;;;;;;;20.00;54.70;;;;;;5049523;28;19913;-74
2022/05/30 00:50:48;;;;;;;;;;;20.00;54.70;;;;;;5066278;28;19913;-74
2022/05/30 00:53:13;;;;;;;;;;;20.00;54.70;;;;;;5066062;28;20007;-74
2022/05/30 00:55:39;;;;;;;;;;;20.00;54.70;;;;;;5084672;28;19912;-74
2022/05/30 00:58:06;;;;;;;;;;;20.00;54.70;;;;;;5066413;28;19912;-72
2022/05/30 01:00:31;;;;;;;;;;;20.00;54.70;;;;;;5066286;28;20339;-73
2022/05/30 01:08:25;;;;;;;;;;;19.90;54.70;;;;;;5068656;28;19919;-73
2022/05/30 01:10:51;;;;;;;;;;;19.90;54.70;;;;;;5049554;28;20288;-75
2022/05/30 01:13:16;;;;;;;;;;;19.90;54.70;;;;;;5049747;28;19916;-75
2022/05/30 01:15:42;;;;;;;;;;;19.90;54.70;;;;;;5066405;28;20293;-74
2022/05/30 01:18:19;;;;;;;;;;;19.90;55.10;;;;;;5084259;28;19921;-72
2022/05/30 01:21:03;;;;;;;;;;;19.80;54.80;;;;;;5066263;28;19916;-73
2022/05/30 01:23:51;;;;;;;;;;;19.80;54.90;;;;;;5083630;28;19912;-73
2022/05/30 01:26:32;;;;;;;;;;;19.90;55.40;;;;;;5065486;28;19999;-73
2022/05/30 01:29:01;;;;;;;;;;;19.90;55.20;;;;;;5066103;28;19920;-72
2022/05/30 01:31:27;;;;;;;;;;;19.90;55.30;;;;;;5084206;28;19920;-74
2022/05/30 01:33:52;;;;;;;;;;;19.90;55.20;;;;;;5065822;28;20003;-73
2022/05/30 01:36:24;;;;;;;;;;;19.80;55.20;;;;;;5047811;28;19965;-73
2022/05/30 01:38:50;;;;;;;;;;;19.80;55.20;;;;;;5049251;28;19912;-74
2022/05/30 01:41:15;;;;;;;;;;;19.80;55.20;;;;;;5065946;28;19955;-73
2022/05/30 01:43:41;;;;;;;;;;;19.80;55.20;;;;;;5065780;28;19958;-72
2022/05/30 01:46:07;;;;;;;;;;;19.80;55.30;;;;;;5066452;28;19999;-74
2022/05/30 01:48:32;;;;;;;;;;;19.80;55.20;;;;;;5065240;28;19916;-74
2022/05/30 01:50:59;;;;;;;;;;;19.80;55.20;;;;;;5065832;28;20199;-72
2022/05/30 01:53:25;;;;;;;;;;;19.80;55.20;;;;;;5083502;28;19912;-73
2022/05/30 01:55:51;;;;;;;;;;;19.80;55.20;;;;;;5064831;28;20002;-73
2022/05/30 01:58:16;;;;;;;;;;;19.80;55.20;;;;;;5083129;28;19912;-73
2022/05/30 02:00:41;;;;;;;;;;;19.80;55.20;;;;;;5065066;28;19920;-73
2022/05/30 02:03:07;;;;;;;;;;;19.80;55.00;;;;;;5082475;28;20369;-73
2022/05/30 02:05:33;;;;;;;;;;;19.80;55.10;;;;;;5065847;28;19997;-72
2022/05/30 02:07:58;;;;;;;;;;;19.80;55.20;;;;;;5082941;28;19912;-72
2022/05/30 02:10:24;;;;;;;;;;;19.80;55.70;;;;;;5082905;28;19919;-73
2022/05/30 02:12:49;;;;;;;;;;;19.80;55.10;;;;;;5065502;28;20320;-74
2022/05/30 02:15:15;;;;;;;;;;;19.90;54.90;;;;;;5083806;28;19918;-73
2022/05/30 02:17:40;;;;;;;;;;;19.90;54.80;;;;;;5083031;28;19913;-73
2022/05/30 02:20:06;;;;;;;;;;;19.90;54.80;;;;;;5083364;28;19913;-72
2022/05/30 02:22:32;;;;;;;;;;;19.90;54.70;;;;;;5048216;28;19916;-73
2022/05/30 02:24:59;;;;;;;;;;;19.90;54.70;;;;;;5065369;28;19928;-73
2022/05/30 02:27:24;;;;;;;;;;;19.80;54.60;;;;;;5064905;28;19920;-73
2022/05/30 02:29:52;;;;;;;;;;;19.90;54.70;;;;;;5064959;28;19912;-73
2022/05/30 02:32:17;;;;;;;;;;;19.80;54.70;;;;;;5065402;28;19916;-73
2022/05/30 02:37:26;;;;;;;;;;;19.80;54.90;;;;;;5067985;28;19918;-73
2022/05/30 02:39:52;;;;;;;;;;;19.70;54.90;;;;;;5048378;28;20452;-74
2022/05/30 02:42:17;;;;;;;;;;;19.70;54.90;;;;;;5064969;28;19923;-73
2022/05/30 02:44:44;;;;;;;;;;;19.70;54.90;;;;;;5082714;28;20594;-72
2022/05/30 02:47:09;;;;;;;;;;;19.70;54.90;;;;;;5064771;28;20301;-72
2022/05/30 02:49:35;;;;;;;;;;;19.70;54.90;;;;;;5065406;28;19912;-72
2022/05/30 02:52:00;;;;;;;;;;;19.70;54.80;;;;;;5082897;28;19940;-73
2022/05/30 02:54:26;;;;;;;;;;;19.70;54.80;;;;;;5065015;28;19966;-73
2022/05/30 02:56:52;;;;;;;;;;;19.70;55.00;;;;;;5048075;28;19912;-72
2022/05/30 02:59:17;;;;;;;;;;;19.70;54.90;;;;;;5047554;28;20334;-72
2022/05/30 03:01:43;;;;;;;;;;;19.70;54.80;;;;;;5082661;28;19962;-72
2022/05/30 03:04:08;;;;;;;;;;;19.70;54.80;;;;;;5064783;28;19922;-72
2022/05/30 03:06:34;;;;;;;;;;;19.70;54.90;;;;;;5065305;28;19912;-72
2022/05/30 03:08:59;;;;;;;;;;;19.70;54.70;;;;;;5047997;28;19919;-74
2022/05/30 03:11:25;;;;;;;;;;;19.70;54.70;;;;;;5064447;28;20003;-74
2022/05/30 03:13:50;;;;;;;;;;;19.70;54.70;;;;;;5064954;28;19912;-72
2022/05/30 03:16:16;;;;;;;;;;;19.70;54.70;;;;;;5082880;28;19916;-73
2022/05/30 03:18:41;;;;;;;;;;;19.70;54.80;;;;;;5064501;28;19912;-73
2022/05/30 03:21:07;;;;;;;;;;;19.70;55.10;;;;;;5083050;28;19998;-73
2022/05/30 03:23:32;;;;;;;;;;;19.70;55.00;;;;;;5082513;28;20029;-74
2022/05/30 03:25:58;;;;;;;;;;;19.70;55.00;;;;;;5082503;28;19969;-73
2022/05/30 03:28:23;;;;;;;;;;;19.70;54.90;;;;;;5083121;28;20002;-73
2022/05/30 03:30:49;;;;;;;;;;;19.70;54.90;;;;;;5086049;28;19912;-72
2022/05/30 03:33:14;;;;;;;;;;;19.70;54.90;;;;;;5066702;28;19992;-74
2022/05/30 03:35:40;;;;;;;;;;;19.70;54.90;;;;;;5076559;28;19938;-73
2022/05/30 03:38:05;;;;;;;;;;;19.70;54.90;;;;;;5071471;28;19983;-73
2022/05/30 03:40:31;;;;;;;;;;;19.70;54.90;;;;;;5067539;28;19912;-73
2022/05/30 03:42:56;;;;;;;;;;;19.70;54.80;;;;;;5067917;28;19912;-75
2022/05/30 03:45:22;;;;;;;;;;;19.60;54.80;;;;;;5068323;28;19972;-74
2022/05/30 03:47:47;;;;;;;;;;;19.60;54.80;;;;;;5067480;28;19912;-73
2022/05/30 03:50:14;;;;;;;;;;;19.60;54.90;;;;;;5067642;28;19935;-73
2022/05/30 03:52:39;;;;;;;;;;;19.60;54.90;;;;;;5050838;28;19920;-73
2022/05/30 03:55:05;;;;;;;;;;;19.60;55.00;;;;;;5068007;28;19912;-73
2022/05/30 03:57:31;;;;;;;;;;;19.70;55.50;;;;;;5085407;28;20690;-72
2022/05/30 03:59:56;;;;;;;;;;;19.70;55.20;;;;;;5067384;28;19927;-73
2022/05/30 04:02:22;;;;;;;;;;;19.60;55.10;;;;;;5066595;28;20293;-72
2022/05/30 04:04:47;;;;;;;;;;;19.60;55.10;;;;;;5085763;28;19961;-73
2022/05/30 04:07:13;;;;;;;;;;;19.60;55.10;;;;;;5066248;28;20365;-73
2022/05/30 04:09:38;;;;;;;;;;;19.60;55.10;;;;;;5067330;28;19912;-74
2022/05/30 04:12:04;;;;;;;;;;;19.70;55.50;;;;;;5084498;28;20389;-74
2022/05/30 04:14:31;;;;;;;;;;;19.70;54.90;;;;;;5085126;28;19935;-76
2022/05/30 04:16:56;;;;;;;;;;;19.70;54.70;;;;;;5063171;28;19952;-75
2022/05/30 04:19:22;;;;;;;;;;;19.60;54.60;;;;;;5047396;28;19997;-76
2022/05/30 04:21:47;;;;;;;;;;;19.50;54.60;;;;;;5044612;28;19920;-74
2022/05/30 04:24:13;;;;;;;;;;;19.60;54.60;;;;;;5067367;28;19913;-74
2022/05/30 04:26:39;;;;;;;;;;;19.50;54.60;;;;;;5067749;28;20054;-72
2022/05/30 04:32:10;;;;;;;;;;;19.50;54.60;;;;;;5039520;22;19951;-56
2022/05/30 04:34:36;;;;;;;;;;;19.50;54.60;;;;;;5060931;28;20385;-57
2022/05/30 04:37:02;;;;;;;;;;;19.40;54.60;;;;;;5061520;28;19927;-56
2022/05/30 04:39:27;;;;;;;;;;;19.40;54.60;;;;;;5060370;28;19912;-56
2022/05/30 04:41:53;;;;;;;;;;;19.40;54.60;;;;;;5058687;28;19924;-56
2022/05/30 04:44:19;;;;;;;;;;;19.50;54.60;;;;;;5060022;28;19924;-56
2022/05/30 04:46:50;;;;;;;;;;;19.50;54.60;;;;;;5060597;28;19969;-55
2022/05/30 04:49:15;;;;;;;;;;;19.50;54.50;;;;;;5061301;28;19999;-56
2022/05/30 04:51:40;;;;;;;;;;;19.50;54.30;;;;;;5058192;28;19919;-58
2022/05/30 04:54:06;;;;;;;;;;;19.50;54.60;;;;;;5060771;28;19923;-57
2022/05/30 04:56:31;;;;;;;;;;;19.50;54.50;;;;;;5060550;28;20263;-56
2022/05/30 04:58:57;;;;;;;;;;;19.50;54.70;;;;;;5058976;28;20248;-54
2022/05/30 05:01:24;;;;;;;;;;;19.50;54.70;;;;;;5059740;28;20030;-56
2022/05/30 05:03:49;;;;;;;;;;;19.50;54.80;;;;;;5060778;28;19917;-57
2022/05/30 05:06:16;;;;;;;;;;;19.50;54.90;;;;;;5062813;28;19917;-56
2022/05/30 05:08:49;;;;;;;;;;;19.40;54.70;;;;;;5062185;28;20345;-57
2022/05/30 05:11:17;;;;;;;;;;;19.40;55.00;;;;;;5026803;28;19917;-56
2022/05/30 05:13:43;;;;;;;;;;;19.40;55.10;;;;;;5062773;28;20011;-55
2022/05/30 05:16:08;;;;;;;;;;;19.40;54.90;;;;;;5061746;28;20035;-55
2022/05/30 05:18:34;;;;;;;;;;;19.40;55.00;;;;;;5061864;28;19982;-57
2022/05/30 05:20:59;;;;;;;;;;;19.40;54.90;;;;;;5062291;28;19927;-54
2022/05/30 05:23:25;;;;;;;;;;;19.40;54.80;;;;;;5060740;28;20289;-56
2022/05/30 05:25:50;;;;;;;;;;;19.40;54.90;;;;;;5061068;28;19928;-58
2022/05/30 05:28:15;;;;;;;;;;;19.40;55.10;;;;;;5059175;28;19966;-58
2022/05/30 05:30:41;;;;;;;;;;;19.40;55.10;;;;;;5057029;28;20397;-57
2022/05/30 05:33:07;;;;;;;;;;;19.40;55.10;;;;;;5041266;28;20171;-57
2022/05/30 05:35:32;;;;;;;;;;;19.40;55.10;;;;;;5059137;28;19916;-57
2022/05/30 05:37:58;;;;;;;;;;;19.40;55.00;;;;;;5059195;28;19995;-55
2022/05/30 05:40:24;;;;;;;;;;;19.40;55.30;;;;;;5057880;28;20366;-59
2022/05/30 05:42:49;;;;;;;;;;;19.40;54.10;;;;;;5059131;28;20077;-57
2022/05/30 05:45:14;;;;;;;;;;;19.30;55.10;;;;;;5059588;28;19917;-57
2022/05/30 05:47:40;;;;;;;;;;;19.30;54.90;;;;;;5058866;28;19969;-56
2022/05/30 05:50:06;;;;;;;;;;;19.30;55.30;;;;;;5058766;28;20308;-57
2022/05/30 05:52:32;;;;;;;;;;;19.40;55.20;;;;;;5058533;28;20231;-57
2022/05/30 05:54:58;;;;;;;;;;;19.30;55.10;;;;;;5058726;28;20386;-56
2022/05/30 05:57:25;;;;;;;;;;;19.40;55.10;;;;;;5058746;28;20008;-57
2022/05/30 05:59:50;;;;;;;;;;;19.30;54.90;;;;;;5058900;28;19921;-57
2022/05/30 06:02:16;;;;;;;;;;;19.30;55.00;;;;;;5061166;28;19928;-55
2022/05/30 06:04:41;;;;;;;;;;;19.40;55.00;;;;;;5059690;28;19917;-55
2022/05/30 06:07:07;;;;;;;;;;;19.40;55.00;;;;;;5059485;28;19982;-56
2022/05/30 06:09:32;;;;;;;;;;;19.40;55.00;;;;;;5057968;28;20006;-56
2022/05/30 06:11:59;;;;;;;;;;;19.40;55.00;;;;;;5041370;28;20380;-56
2022/05/30 06:14:24;;;;;;;;;;;19.30;54.90;;;;;;5058612;28;19948;-57
2022/05/30 06:16:49;;;;;;;;;;;19.30;54.80;;;;;;5059289;28;20253;-60
2022/05/30 06:19:15;;;;;;;;;;;19.40;54.90;;;;;;5041073;28;20228;-58
2022/05/30 06:21:40;;;;;;;;;;;19.40;55.40;;;;;;5058836;28;20337;-57
2022/05/30 06:24:07;;;;;;;;;;;19.40;56.60;;;;;;5058290;28;19989;-56
2022/05/30 06:26:32;;;;;;;;;;;19.50;55.60;;;;;;5058792;28;19916;-56
2022/05/30 06:28:58;;;;;;;;;;;19.40;55.40;;;;;;5057132;28;19919;-56
2022/05/30 06:31:25;;;;;;;;;;;19.40;55.30;;;;;;5058713;28;19927;-56
2022/05/30 06:33:50;;;;;;;;;;;19.40;55.40;;;;;;5053602;28;20289;-56
2022/05/30 06:36:16;;;;;;;;;;;19.30;55.30;;;;;;5059281;28;19917;-56
2022/05/30 06:38:43;;;;;;;;;;;19.40;55.40;;;;;;5039353;28;19985;-54
2022/05/30 06:41:15;;;;;;;;;;;19.40;55.40;;;;;;5058506;28;20429;-56
2022/05/30 06:43:41;;;;;;;;;;;19.40;55.30;;;;;;5057726;28;20344;-55
2022/05/30 06:46:06;;;;;;;;;;;19.40;55.30;;;;;;5058983;28;20375;-56
2022/05/30 06:48:32;;;;;;;;;;;19.30;55.20;;;;;;5057302;28;19995;-53
2022/05/30 06:50:58;;;;;;;;;;;19.30;55.10;;;;;;5058636;28;19912;-54
2022/05/30 06:53:23;;;;;;;;;;;19.30;55.10;;;;;;5057772;28;19916;-56
2022/05/30 06:55:50;;;;;;;;;;;19.40;55.20;;;;;;5059313;28;19913;-56
2022/05/30 06:58:16;;;;;;;;;;;19.30;55.10;;;;;;5058473;28;19920;-54
2022/05/30 07:00:42;;;;;;;;;;;19.30;55.10;;;;;;5058320;28;19984;-54
2022/05/30 07:03:07;;;;;;;;;;;19.30;55.10;;;;;;5059374;28;19916;-55
2022/05/30 07:05:34;;;;;;;;;;;19.30;55.10;;;;;;5062903;28;20452;-56
2022/05/30 07:08:00;;;;;;;;;;;19.30;55.10;;;;;;5046008;28;19932;-56
2022/05/30 07:10:25;;;;;;;;;;;19.30;55.10;;;;;;5067782;28;19934;-55
2022/05/30 07:12:51;;;;;;;;;;;19.30;55.10;;;;;;5063881;28;20065;-54
2022/05/30 07:15:16;;;;;;;;;;;19.30;55.10;;;;;;5066839;28;19912;-56
2022/05/30 07:17:42;;;;;;;;;;;19.30;55.10;;;;;;5064880;28;19917;-54
2022/05/30 07:20:08;;;;;;;;;;;19.30;55.10;;;;;;5063152;28;19935;-56
2022/05/30 07:22:33;;;;;;;;;;;19.30;55.10;;;;;;5062712;28;19920;-53
2022/05/30 07:24:59;;;;;;;;;;;19.30;55.10;;;;;;5062077;28;19917;-57
2022/05/30 07:27:24;;;;;;;;;;;19.30;55.10;;;;;;5066036;28;19916;-56
2022/05/30 07:29:50;;;;;;;;;;;19.30;55.10;;;;;;5065258;28;19913;-58
2022/05/30 07:32:15;;;;;;;;;;;19.30;55.20;;;;;;5065655;28;19924;-55
2022/05/30 07:34:41;;;;;;;;;;;19.30;55.20;;;;;;5064090;28;19916;-55
2022/05/30 07:37:06;;;;;;;;;;;19.30;55.20;;;;;;5063177;28;19916;-54
2022/05/30 07:39:35;;;;;;;;;;;19.30;55.20;;;;;;5062361;28;19977;-54
2022/05/30 07:42:00;;;;;;;;;;;19.30;55.10;;;;;;5062605;28;20003;-54
2022/05/30 07:44:25;;;;;;;;;;;19.30;55.10;;;;;;5062088;28;19923;-55
2022/05/30 07:46:51;;;;;;;;;;;19.40;55.20;;;;;;5062096;28;19916;-55
2022/05/30 07:49:16;;;;;;;;;;;19.30;55.10;;;;;;5061391;28;20405;-54
2022/05/30 07:51:44;;;;;;;;;;;19.30;55.10;;;;;;5060818;28;19912;-54
2022/05/30 07:54:09;;;;;;;;;;;19.30;55.70;;;;;;5060141;28;19935;-55
2022/05/30 07:56:35;;;;;;;;;;;19.30;55.00;;;;;;5061308;28;19912;-53
2022/05/30 07:59:01;;;;;;;;;;;19.30;55.10;;;;;;5060493;28;19917;-54
2022/05/30 08:01:26;;;;;;;;;;;19.40;55.10;;;;;;5060743;28;19931;-55
2022/05/30 08:03:52;;;;;;;;;;;19.30;55.10;;;;;;5060693;28;19951;-54
2022/05/30 08:06:24;;;;;;;;;;;19.30;55.10;;;;;;5061073;28;19913;-54
2022/05/30 08:08:50;;;;;;;;;;;19.40;55.10;;;;;;5059883;28;19940;-54
2022/05/30 08:11:16;;;;;;;;;;;19.30;55.00;;;;;;5060638;28;20097;-54
2022/05/30 08:13:42;;;;;;;;;;;19.30;55.10;;;;;;5060307;28;19912;-57
2022/05/30 08:16:08;;;;;;;;;;;19.30;55.10;;;;;;5060831;28;19973;-56
2022/05/30 08:18:33;;;;;;;;;;;19.30;55.10;;;;;;5060073;28;19916;-55
2022/05/30 08:20:59;;;;;;;;;;;19.30;55.10;;;;;;5060300;28;20385;-56
2022/05/30 08:23:24;;;;;;;;;;;19.20;55.20;;;;;;5060529;28;19916;-56
2022/05/30 08:25:50;;;;;;;;;;;19.30;55.20;;;;;;5050301;28;19921;-57
2022/05/30 08:28:16;;;;;;;;;;;19.30;55.10;;;;;;5042712;28;19917;-56
2022/05/30 08:30:41;;;;;;;;;;;19.30;55.10;;;;;;5059458;28;20009;-54
2022/05/30 08:33:13;;;;;;;;;;;19.30;55.10;;;;;;5060273;28;20053;-55
2022/05/30 08:35:39;;;;;;;;;;;19.30;55.20;;;;;;5055781;28;19963;-56
2022/05/30 08:38:04;;;;;;;;;;;19.30;55.20;;;;;;5039576;28;19916;-57
2022/05/30 08:43:31;;;;;;;;;;;19.30;55.10;;;;;;5060272;28;19947;-63
2022/05/30 08:46:05;;;;;;;;;;;19.30;55.10;;;;;;5059373;28;20071;-54
2022/05/30 08:48:40;;;;;;;;;;;19.30;55.20;;;;;;5040981;28;19927;-56
2022/05/30 08:51:28;;;;;;;;;;;19.30;55.20;;;;;;5060185;28;20373;-56
2022/05/30 08:53:54;;;;;;;;;;;19.30;55.10;;;;;;5050929;28;19912;-55
2022/05/30 08:56:22;;;;;;;;;;;19.20;55.00;;;;;;5060168;28;19999;-55
2022/05/30 08:59:13;;;;;;;;;;;19.30;55.20;;;;;;5058251;28;19924;-56
2022/05/30 09:01:38;;;;;;;;;;;19.30;55.20;;;;;;5000983;28;19924;-55
2022/05/30 09:04:21;;;;;;;;;;;19.30;55.20;;;;;;5039160;28;20337;-56
2022/05/30 09:06:47;;;;;;;;;;;19.30;55.10;;;;;;5037258;28;20898;-54
2022/05/30 09:09:19;;;;;;;;;;;19.30;55.10;;;;;;5057998;28;20244;-55
2022/05/30 09:11:46;;;;;;;;;;;19.30;55.00;;;;;;5041476;28;19924;-54
2022/05/30 09:14:13;;;;;;;;;;;19.20;53.40;;;;;;5058560;28;19992;-56
2022/05/30 09:16:39;;;;;;;;;;;19.00;55.40;;;;;;5058021;28;19919;-56
2022/05/30 09:19:06;;;;;;;;;;;19.10;55.40;;;;;;5040137;28;19916;-56
2022/05/30 09:21:31;;;;;;;;;;;19.20;55.30;;;;;;5040563;28;19927;-55
2022/05/30 09:23:57;;;;;;;;;;;19.20;55.30;;;;;;5057015;28;20398;-56
2022/05/30 09:26:24;;;;;;;;;;;19.20;55.20;;;;;;5040420;28;19913;-55
2022/05/30 09:28:50;;;;;;;;;;;19.20;54.90;;;;;;5040233;28;20426;-54
2022/05/30 09:31:18;;;;;;;;;;;19.20;55.30;;;;;;5058102;28;19959;-56
2022/05/30 09:33:45;;;;;;;;;;;19.20;55.20;;;;;;5039745;28;19970;-55
2022/05/30 09:36:19;;;;;;;;;;;19.20;55.20;;;;;;5040185;28;19916;-55
2022/05/30 09:38:47;;;;;;;;;;;19.20;55.20;;;;;;5057069;28;20123;-54
2022/05/30 09:41:17;;;;;;;;;;;19.00;55.40;;;;;;5058271;28;19993;-56
2022/05/30 09:43:51;;;;;;;;;;;19.10;55.30;;;;;;5057823;28;19916;-56
2022/05/30 09:46:28;;;;;;;;;;;19.00;54.40;;;;;;5040191;28;19917;-55
2022/05/30 09:49:06;;;;;;;;;;;18.90;54.90;;;;;;5056510;28;19919;-56
2022/05/30 09:51:32;;;;;;;;;;;18.90;55.40;;;;;;5058040;28;20237;-52
2022/05/30 09:53:57;;;;;;;;;;;18.90;55.10;;;;;;5057841;28;20387;-55
2022/05/30 09:56:23;;;;;;;;;;;18.90;55.60;;;;;;5058041;28;20431;-57
2022/05/30 09:59:01;;;;;;;;;;;18.90;55.00;;;;;;5056555;28;19981;-56
2022/05/30 10:01:27;;;;;;;;;;;18.90;55.50;;;;;;5039788;28;19939;-55
2022/05/30 10:03:56;;;;;;;;;;;18.90;55.80;;;;;;5053199;28;20390;-56
2022/05/30 10:06:23;;;;;;;;;;;19.00;55.50;;;;;;5056023;28;20003;-58
2022/05/30 10:08:48;;;;;;;;;;;18.80;55.40;;;;;;5055826;28;19917;-56
2022/05/30 10:11:32;;;;;;;;;;;18.90;55.80;;;;;;5058035;28;19912;-55
2022/05/30 10:13:57;;;;;;;;;;;19.00;55.40;;;;;;5057447;28;19916;-56
2022/05/30 10:16:30;;;;;;;;;;;19.00;55.40;;;;;;5039912;28;19920;-54
2022/05/30 10:18:56;;;;;;;;;;;19.00;55.20;;;;;;5056894;28;19991;-57
2022/05/30 10:21:25;;;;;;;;;;;18.90;55.00;;;;;;5057723;28;20823;-55
2022/05/30 10:30:04;;;;;;;;;;;18.70;55.50;;;;;;5042305;28;20065;-55
2022/05/30 10:32:40;;;;;;;;;;;18.80;55.40;;;;;;4985126;28;20240;-55
2022/05/30 10:35:21;;;;;;;;;;;18.90;55.50;;;;;;4959589;28;19914;-57
2022/05/30 10:37:46;;;;;;;;;;;19.00;54.90;;;;;;5029135;28;22617;-54
2022/05/30 10:40:24;;;;;;;;;;;18.80;54.50;;;;;;5061535;28;20225;-56
2022/05/30 10:42:54;;;;;;;;;;;18.90;55.50;;;;;;5062536;28;19921;-54
2022/05/30 10:45:43;;;;;;;;;;;19.00;55.40;;;;;;5037804;28;19948;-56
2022/05/30 10:48:10;;;;;;;;;;;18.90;52.90;;;;;;5046158;28;19916;-56
2022/05/30 10:50:43;;;;;;;;;;;18.80;55.20;;;;;;5042470;28;19917;-56
2022/05/30 10:53:10;;;;;;;;;;;18.90;55.40;;;;;;5044870;28;20221;-54
2022/05/30 10:55:36;;;;;;;;;;;19.00;55.30;;;;;;5044062;28;19920;-56
2022/05/30 10:58:08;;;;;;;;;;;19.10;55.30;;;;;;5044101;28;20405;-54
2022/05/30 11:00:34;;;;;;;;;;;19.10;55.30;;;;;;5067924;22;19924;-56
2022/05/30 11:03:09;;;;;;;;;;;19.10;55.20;;;;;;5060838;28;20337;-55
2022/05/30 11:05:37;;;;;;;;;;;19.10;52.70;;;;;;5043703;28;19975;-56
2022/05/30 11:08:18;;;;;;;;;;;19.00;54.50;;;;;;5026035;28;19940;-56
2022/05/30 11:10:56;;;;;;;;;;;18.90;53.90;;;;;;5042725;28;19913;-56
2022/05/30 11:13:33;;;;;;;;;;;18.70;54.30;;;;;;5043437;28;20289;-57
2022/05/30 11:16:01;;;;;;;;;;;18.70;54.90;;;;;;5042780;28;19912;-56
2022/05/30 11:18:28;;;;;;;;;;;18.80;54.70;;;;;;5024402;28;19940;-56
2022/05/30 11:21:11;;;;;;;;;;;18.90;54.60;;;;;;5044038;28;20007;-57
2022/05/30 11:23:36;;;;;;;;;;;18.90;53.90;;;;;;5043297;28;19916;-56
2022/05/30 11:26:25;;;;;;;;;;;18.80;54.20;;;;;;5043084;28;19978;-56
2022/05/30 11:29:14;;;;;;;;;;;18.80;53.80;;;;;;5024182;28;20580;-55
2022/05/30 11:31:49;;;;;;;;;;;18.80;53.70;;;;;;5023891;28;21598;-56
2022/05/30 11:34:17;;;;;;;;;;;18.70;54.40;;;;;;5024886;28;19970;-55
2022/05/30 11:37:09;;;;;;;;;;;18.80;55.00;;;;;;5043097;28;19982;-57
2022/05/30 11:39:44;;;;;;;;;;;18.90;54.90;;;;;;5037948;28;19916;-56
2022/05/30 11:42:16;;;;;;;;;;;19.00;55.00;;;;;;5043645;28;20417;-53
2022/05/30 11:44:48;;;;;;;;;;;19.10;55.00;;;;;;5025146;28;20099;-53
2022/05/30 11:47:23;;;;;;;;;;;19.00;54.70;;;;;;5025139;28;19948;-55
2022/05/30 11:50:09;;;;;;;;;;;19.00;54.40;;;;;;5041700;28;19962;-55
2022/05/30 11:52:44;;;;;;;;;;;18.90;54.60;;;;;;5024160;28;19943;-54
2022/05/30 11:55:14;;;;;;;;;;;18.90;54.80;;;;;;5042753;28;19916;-56
2022/05/30 11:57:54;;;;;;;;;;;18.80;53.80;;;;;;5042797;28;19917;-54
2022/05/30 12:00:19;;;;;;;;;;;18.90;55.10;;;;;;5042170;28;19971;-55
2022/05/30 12:02:53;;;;;;;;;;;19.00;55.00;;;;;;5042380;28;19955;-56
2022/05/30 12:05:54;;;;;;;;;;;19.00;55.00;;;;;;5043521;28;19952;-55
2022/05/30 12:08:52;;;;;;;;;;;18.90;54.70;;;;;;4936149;28;19914;-56
2022/05/30 12:11:36;;;;;;;;;;;18.90;54.90;;;;;;4998460;28;19913;-56
2022/05/30 12:14:09;;;;;;;;;;;19.00;54.60;;;;;;5043125;28;20225;-56
2022/05/30 12:16:53;;;;;;;;;;;18.90;54.50;;;;;;5041548;28;20719;-57
2022/05/30 12:24:57;;;;;;;;;;;18.70;54.60;;;;;;5040565;28;20332;-55
2022/05/30 12:27:25;;;;;;;;;;;18.60;55.00;;;;;;5041277;28;19925;-59
2022/05/30 12:29:51;;;;;;;;;;;18.80;55.20;;;;;;5041336;28;20443;-56
2022/05/30 12:32:41;;;;;;;;;;;18.90;55.80;;;;;;5023665;28;19913;-57
2022/05/30 12:35:18;;;;;;;;;;;19.00;55.00;;;;;;5040691;28;20234;-56
2022/05/30 12:37:45;;;;;;;;;;;18.90;53.50;;;;;;5041487;28;20134;-56
2022/05/30 12:40:25;;;;;;;;;;;18.90;54.40;;;;;;5040973;28;20229;-56
2022/05/30 12:43:13;;;;;;;;;;;18.90;54.50;;;;;;5041745;28;19920;-56
2022/05/30 12:45:42;;;;;;;;;;;18.90;53.00;;;;;;5039948;28;19917;-54
2022/05/30 12:48:11;;;;;;;;;;;18.80;53.30;;;;;;5041245;28;19912;-55
2022/05/30 12:50:43;;;;;;;;;;;18.70;51.10;;;;;;5040709;28;19917;-55
2022/05/30 12:53:09;;;;;;;;;;;18.80;53.90;;;;;;5041463;28;20319;-55
2022/05/30 12:55:39;;;;;;;;;;;18.90;54.30;;;;;;5040740;28;19912;-56
2022/05/30 12:58:05;;;;;;;;;;;18.70;53.20;;;;;;5023128;28;19917;-56
2022/05/30 13:00:36;;;;;;;;;;;18.80;52.10;;;;;;5038665;28;19935;-55
2022/05/30 13:03:09;;;;;;;;;;;18.60;54.70;;;;;;5040813;28;20002;-54
2022/05/30 13:05:35;;;;;;;;;;;18.80;54.80;;;;;;5040930;28;20056;-57
2022/05/30 13:08:04;;;;;;;;;;;18.90;54.70;;;;;;5040018;28;20270;-56
2022/05/30 13:10:36;;;;;;;;;;;18.90;54.50;;;;;;5016703;28;19917;-56
2022/05/30 13:13:04;;;;;;;;;;;19.00;54.90;;;;;;5018508;28;19912;-56
2022/05/30 13:15:31;;;;;;;;;;;18.80;51.40;;;;;;5015542;28;20401;-56
2022/05/30 13:17:56;;;;;;;;;;;18.80;53.70;;;;;;5040628;28;19978;-56
2022/05/30 13:20:24;;;;;;;;;;;18.90;54.70;;;;;;5040835;28;20003;-54
2022/05/30 13:22:57;;;;;;;;;;;18.80;54.40;;;;;;5040288;28;19921;-55
2022/05/30 13:25:27;;;;;;;;;;;18.90;54.50;;;;;;5014471;28;21479;-55
2022/05/30 13:27:53;;;;;;;;;;;19.00;54.60;;;;;;5041318;28;20024;-55
2022/05/30 13:30:20;;;;;;;;;;;19.10;54.90;;;;;;5040180;28;19917;-57
2022/05/30 13:32:45;;;;;;;;;;;19.10;54.60;;;;;;5041580;28;20179;-56
2022/05/30 13:35:11;;;;;;;;;;;19.10;54.70;;;;;;5042095;28;20259;-54
2022/05/30 13:37:37;;;;;;;;;;;19.10;54.70;;;;;;5042589;28;19917;-56
2022/05/30 13:40:04;;;;;;;;;;;19.10;54.80;;;;;;5040883;28;19920;-55
2022/05/30 13:42:30;;;;;;;;;;;19.20;54.60;;;;;;5040986;28;19928;-57
2022/05/30 13:44:56;;;;;;;;;;;19.20;54.80;;;;;;5040783;28;19917;-54
2022/05/30 13:47:21;;;;;;;;;;;19.10;54.60;;;;;;5040918;28;19978;-54
2022/05/30 13:49:51;;;;;;;;;;;18.90;51.30;;;;;;5039937;28;19912;-57
2022/05/30 13:52:22;;;;;;;;;;;18.70;52.80;;;;;;5040008;28;20409;-56
2022/05/30 13:54:49;;;;;;;;;;;18.80;53.20;;;;;;5039458;28;19924;-57
2022/05/30 13:57:15;;;;;;;;;;;18.90;54.10;;;;;;5023136;28;19917;-56
2022/05/30 13:59:44;;;;;;;;;;;19.00;53.30;;;;;;5039549;28;20443;-56
2022/05/30 14:02:14;;;;;;;;;;;18.90;52.30;;;;;;5039651;28;20008;-56
2022/05/30 14:04:40;;;;;;;;;;;18.90;54.30;;;;;;5021622;28;19923;-56
2022/05/30 14:07:11;;;;;;;;;;;18.90;52.10;;;;;;5039972;28;19989;-56
2022/05/30 14:09:36;;;;;;;;;;;18.80;53.60;;;;;;5021805;28;19965;-56
2022/05/30 14:12:03;;;;;;;;;;;18.90;54.50;;;;;;5022007;28;19921;-57
2022/05/30 14:14:32;;;;;;;;;;;19.00;54.40;;;;;;5022336;28;19924;-56
2022/05/30 14:16:58;;;;;;;;;;;18.90;53.70;;;;;;5039697;28;20297;-58
2022/05/30 14:19:24;;;;;;;;;;;18.90;54.30;;;;;;5040064;28;19986;-56
2022/05/30 14:21:51;;;;;;;;;;;19.00;54.50;;;;;;5022722;28;19943;-55
2022/05/30 14:24:25;;;;;;;;;;;19.00;54.00;;;;;;5039624;28;21361;-56
2022/05/30 14:26:50;;;;;;;;;;;19.00;53.50;;;;;;5022674;28;19917;-56
2022/05/30 14:29:16;;;;;;;;;;;18.80;53.30;;;;;;5039453;28;20448;-56
2022/05/30 14:31:43;;;;;;;;;;;18.80;54.00;;;;;;5040266;28;20408;-57
2022/05/30 14:34:12;;;;;;;;;;;18.80;54.20;;;;;;5040411;28;19924;-55
2022/05/30 14:36:39;;;;;;;;;;;18.80;53.80;;;;;;5039770;28;20224;-56
2022/05/30 14:39:20;;;;;;;;;;;18.80;54.40;;;;;;5039044;28;19913;-55
2022/05/30 14:42:02;;;;;;;;;;;18.80;53.70;;;;;;5039273;28;19970;-56
2022/05/30 14:44:37;;;;;;;;;;;18.80;54.20;;;;;;5028798;28;20717;-57
2022/05/30 14:47:07;;;;;;;;;;;18.60;52.60;;;;;;5021626;28;19921;-56
2022/05/30 14:49:33;;;;;;;;;;;18.60;54.30;;;;;;5039481;28;19952;-56